sensor_id;sensor_type;location;lat;lon;timestamp;pressure;altitude;pressure_sealevel;temperature;humidity
67377;BME280;54261;46.086;6.588;2023-06-26T00:00:51;92863.38;;;19.79;36.01
67377;BME280;54261;46.086;6.588;2023-06-26T00:05:53;92870.59;;;19.64;36.41
67377;BME280;54261;46.086;6.588;2023-06-26T00:10:55;92853.09;;;19.96;35.55
67377;BME280;54261;46.086;6.588;2023-06-26T00:15:57;92880.31;;;19.18;37.48
67377;BME280;54261;46.086;6.588;2023-06-26T00:20:59;92879.63;;;19.72;36.91
67377;BME280;54261;46.086;6.588;2023-06-26T00:26:00;92875.16;;;19.87;35.85
67377;BME280;54261;46.086;6.588;2023-06-26T00:31:02;92872.28;;;19.26;36.69
67377;BME280;54261;46.086;6.588;2023-06-26T00:36:04;92865.63;;;20.00;35.39
67377;BME280;54261;46.086;6.588;2023-06-26T00:41:06;92872.56;;;19.44;36.98
67377;BME280;54261;46.086;6.588;2023-06-26T00:46:14;92873.50;;;18.23;38.15
67377;BME280;54261;46.086;6.588;2023-06-26T00:51:16;92878.97;;;19.55;36.74
67377;BME280;54261;46.086;6.588;2023-06-26T00:56:19;92868.84;;;18.86;37.79
67377;BME280;54261;46.086;6.588;2023-06-26T01:01:21;92884.56;;;17.46;40.38
67377;BME280;54261;46.086;6.588;2023-06-26T01:06:28;92877.53;;;18.52;38.76
67377;BME280;54261;46.086;6.588;2023-06-26T01:11:33;92877.75;;;17.36;39.94
67377;BME280;54261;46.086;6.588;2023-06-26T01:16:35;92878.91;;;17.35;39.91
67377;BME280;54261;46.086;6.588;2023-06-26T01:21:42;92869.38;;;17.93;39.12
67377;BME280;54261;46.086;6.588;2023-06-26T01:26:46;92868.41;;;17.01;40.50
67377;BME280;54261;46.086;6.588;2023-06-26T01:31:50;92865.19;;;17.80;40.05
67377;BME280;54261;46.086;6.588;2023-06-26T01:36:52;92846.47;;;18.50;38.87
67377;BME280;54261;46.086;6.588;2023-06-26T01:41:53;92871.25;;;19.11;37.29
67377;BME280;54261;46.086;6.588;2023-06-26T01:47:02;92866.38;;;16.54;42.08
67377;BME280;54261;46.086;6.588;2023-06-26T01:57:18;92882.16;;;18.28;38.22
67377;BME280;54261;46.086;6.588;2023-06-26T02:02:20;92875.31;;;17.15;41.64
67377;BME280;54261;46.086;6.588;2023-06-26T02:07:22;92867.34;;;18.26;38.82
67377;BME280;54261;46.086;6.588;2023-06-26T02:12:24;92867.94;;;17.63;39.40
67377;BME280;54261;46.086;6.588;2023-06-26T02:17:26;92859.63;;;18.28;39.10
67377;BME280;54261;46.086;6.588;2023-06-26T02:22:29;92868.53;;;18.68;37.83
67377;BME280;54261;46.086;6.588;2023-06-26T02:27:31;92870.38;;;18.83;37.76
67377;BME280;54261;46.086;6.588;2023-06-26T02:32:33;92874.56;;;16.13;42.28
67377;BME280;54261;46.086;6.588;2023-06-26T02:37:35;92875.84;;;17.53;40.37
67377;BME280;54261;46.086;6.588;2023-06-26T02:42:37;92876.16;;;17.67;39.36
67377;BME280;54261;46.086;6.588;2023-06-26T02:47:39;92870.81;;;18.06;38.93
67377;BME280;54261;46.086;6.588;2023-06-26T02:52:44;92879.41;;;17.57;40.18
67377;BME280;54261;46.086;6.588;2023-06-26T02:57:46;92881.19;;;17.33;40.83
67377;BME280;54261;46.086;6.588;2023-06-26T03:02:48;92865.09;;;17.08;41.00
67377;BME280;54261;46.086;6.588;2023-06-26T03:07:52;92881.94;;;17.66;39.83
67377;BME280;54261;46.086;6.588;2023-06-26T03:12:54;92882.72;;;17.82;40.26
67377;BME280;54261;46.086;6.588;2023-06-26T03:17:58;92883.19;;;18.43;39.13
67377;BME280;54261;46.086;6.588;2023-06-26T03:23:02;92891.13;;;17.45;39.99
67377;BME280;54261;46.086;6.588;2023-06-26T03:28:04;92880.47;;;17.52;40.09
67377;BME280;54261;46.086;6.588;2023-06-26T03:33:07;92882.72;;;16.29;42.87
67377;BME280;54261;46.086;6.588;2023-06-26T03:38:10;92891.88;;;15.33;44.76
67377;BME280;54261;46.086;6.588;2023-06-26T03:43:11;92899.84;;;17.86;40.25
67377;BME280;54261;46.086;6.588;2023-06-26T03:48:35;92892.66;;;15.71;43.29
67377;BME280;54261;46.086;6.588;2023-06-26T03:53:37;92879.38;;;16.76;41.68
67377;BME280;54261;46.086;6.588;2023-06-26T03:58:39;92900.75;;;16.65;42.14
67377;BME280;54261;46.086;6.588;2023-06-26T04:03:41;92883.69;;;17.58;40.71
67377;BME280;54261;46.086;6.588;2023-06-26T04:08:45;92899.44;;;17.36;40.81
67377;BME280;54261;46.086;6.588;2023-06-26T04:13:47;92901.38;;;17.19;41.23
67377;BME280;54261;46.086;6.588;2023-06-26T04:18:49;92893.53;;;18.34;39.65
67377;BME280;54261;46.086;6.588;2023-06-26T04:23:51;92901.06;;;16.76;41.50
67377;BME280;54261;46.086;6.588;2023-06-26T04:28:53;92906.84;;;15.68;44.58
67377;BME280;54261;46.086;6.588;2023-06-26T04:33:55;92903.75;;;14.49;47.07
67377;BME280;54261;46.086;6.588;2023-06-26T04:38:58;92900.63;;;14.72;47.07
67377;BME280;54261;46.086;6.588;2023-06-26T04:44:00;92903.75;;;17.05;42.97
67377;BME280;54261;46.086;6.588;2023-06-26T04:49:02;92918.81;;;17.67;41.79
67377;BME280;54261;46.086;6.588;2023-06-26T04:54:04;92912.44;;;18.50;40.35
67377;BME280;54261;46.086;6.588;2023-06-26T04:59:06;92921.81;;;16.85;42.98
67377;BME280;54261;46.086;6.588;2023-06-26T05:04:08;92913.44;;;17.22;42.74
67377;BME280;54261;46.086;6.588;2023-06-26T05:09:10;92917.03;;;18.10;40.56
67377;BME280;54261;46.086;6.588;2023-06-26T05:14:12;92910.38;;;18.63;40.36
67377;BME280;54261;46.086;6.588;2023-06-26T05:19:15;92906.09;;;18.42;40.98
67377;BME280;54261;46.086;6.588;2023-06-26T05:24:19;92912.69;;;18.05;41.45
67377;BME280;54261;46.086;6.588;2023-06-26T05:29:23;92905.38;;;18.10;41.33
67377;BME280;54261;46.086;6.588;2023-06-26T05:34:25;92914.66;;;18.25;42.25
67377;BME280;54261;46.086;6.588;2023-06-26T05:39:30;92913.53;;;18.65;41.63
67377;BME280;54261;46.086;6.588;2023-06-26T05:44:33;92917.59;;;18.36;42.16
67377;BME280;54261;46.086;6.588;2023-06-26T05:49:34;92917.13;;;18.89;40.78
67377;BME280;54261;46.086;6.588;2023-06-26T05:54:37;92910.44;;;18.47;40.96
67377;BME280;54261;46.086;6.588;2023-06-26T05:59:39;92893.44;;;19.13;40.23
67377;BME280;54261;46.086;6.588;2023-06-26T06:04:42;92914.78;;;19.57;40.06
67377;BME280;54261;46.086;6.588;2023-06-26T06:09:44;92919.91;;;19.39;40.04
67377;BME280;54261;46.086;6.588;2023-06-26T06:14:45;92914.69;;;20.04;39.41
67377;BME280;54261;46.086;6.588;2023-06-26T06:19:47;92902.44;;;19.91;39.16
67377;BME280;54261;46.086;6.588;2023-06-26T06:24:50;92901.19;;;19.57;39.96
67377;BME280;54261;46.086;6.588;2023-06-26T06:29:53;92901.72;;;20.21;39.04
67377;BME280;54261;46.086;6.588;2023-06-26T06:34:54;92887.22;;;20.43;39.36
67377;BME280;54261;46.086;6.588;2023-06-26T06:39:56;92892.91;;;20.99;38.94
67377;BME280;54261;46.086;6.588;2023-06-26T06:44:58;92888.38;;;20.42;40.85
67377;BME280;54261;46.086;6.588;2023-06-26T06:50:01;92873.03;;;20.03;41.71
67377;BME280;54261;46.086;6.588;2023-06-26T06:55:10;92857.28;;;20.47;40.35
67377;BME280;54261;46.086;6.588;2023-06-26T07:00:13;92884.53;;;20.47;42.29
67377;BME280;54261;46.086;6.588;2023-06-26T07:05:17;92867.81;;;19.37;44.17
67377;BME280;54261;46.086;6.588;2023-06-26T07:10:19;92880.56;;;20.75;42.57
67377;BME280;54261;46.086;6.588;2023-06-26T07:15:21;92877.31;;;20.96;41.32
67377;BME280;54261;46.086;6.588;2023-06-26T07:20:23;92883.38;;;21.69;40.69
67377;BME280;54261;46.086;6.588;2023-06-26T07:25:25;92882.94;;;22.16;39.54
67377;BME280;54261;46.086;6.588;2023-06-26T07:30:27;92880.19;;;22.16;39.91
67377;BME280;54261;46.086;6.588;2023-06-26T07:35:29;92873.38;;;22.65;38.51
67377;BME280;54261;46.086;6.588;2023-06-26T07:40:31;92851.03;;;22.38;37.58
67377;BME280;54261;46.086;6.588;2023-06-26T07:45:33;92862.28;;;19.57;42.99
67377;BME280;54261;46.086;6.588;2023-06-26T07:50:35;92872.28;;;20.68;41.05
67377;BME280;54261;46.086;6.588;2023-06-26T07:55:37;92870.03;;;19.82;41.77
67377;BME280;54261;46.086;6.588;2023-06-26T08:00:40;92872.94;;;19.42;42.66
67377;BME280;54261;46.086;6.588;2023-06-26T08:05:42;92879.59;;;17.00;46.79
67377;BME280;54261;46.086;6.588;2023-06-26T08:10:44;92875.19;;;18.90;44.85
67377;BME280;54261;46.086;6.588;2023-06-26T08:15:46;92886.03;;;19.56;42.75
67377;BME280;54261;46.086;6.588;2023-06-26T08:20:48;92875.28;;;17.31;45.96
67377;BME280;54261;46.086;6.588;2023-06-26T08:25:50;92880.38;;;18.00;44.53
67377;BME280;54261;46.086;6.588;2023-06-26T08:30:52;92877.66;;;15.74;50.25
67377;BME280;54261;46.086;6.588;2023-06-26T08:35:54;92888.44;;;17.13;46.53
67377;BME280;54261;46.086;6.588;2023-06-26T08:40:56;92866.31;;;18.93;41.82
67377;BME280;54261;46.086;6.588;2023-06-26T08:45:59;92882.47;;;20.10;39.33
67377;BME280;54261;46.086;6.588;2023-06-26T08:51:15;92875.91;;;19.33;39.75
67377;BME280;54261;46.086;6.588;2023-06-26T08:56:18;92870.78;;;18.42;43.45
67377;BME280;54261;46.086;6.588;2023-06-26T09:01:24;92875.50;;;17.90;43.36
67377;BME280;54261;46.086;6.588;2023-06-26T09:06:26;92872.16;;;18.95;41.63
67377;BME280;54261;46.086;6.588;2023-06-26T09:11:28;92877.06;;;19.56;40.62
67377;BME280;54261;46.086;6.588;2023-06-26T09:16:30;92866.63;;;16.20;45.33
67377;BME280;54261;46.086;6.588;2023-06-26T09:21:32;92877.53;;;19.38;39.82
67377;BME280;54261;46.086;6.588;2023-06-26T09:26:37;92877.00;;;19.29;41.83
67377;BME280;54261;46.086;6.588;2023-06-26T09:31:40;92876.09;;;18.98;41.40
67377;BME280;54261;46.086;6.588;2023-06-26T09:36:43;92867.19;;;17.83;42.09
67377;BME280;54261;46.086;6.588;2023-06-26T09:41:48;92865.31;;;19.52;41.67
67377;BME280;54261;46.086;6.588;2023-06-26T09:46:50;92880.94;;;18.10;45.73
67377;BME280;54261;46.086;6.588;2023-06-26T09:51:52;92854.25;;;18.51;42.63
67377;BME280;54261;46.086;6.588;2023-06-26T09:56:56;92874.69;;;19.31;42.74
67377;BME280;54261;46.086;6.588;2023-06-26T10:01:59;92876.94;;;18.39;44.87
67377;BME280;54261;46.086;6.588;2023-06-26T10:07:07;92876.31;;;19.59;40.23
67377;BME280;54261;46.086;6.588;2023-06-26T10:12:26;92866.53;;;19.81;36.80
67377;BME280;54261;46.086;6.588;2023-06-26T10:17:32;92861.47;;;19.80;37.84
67377;BME280;54261;46.086;6.588;2023-06-26T10:22:42;92834.00;;;19.15;40.42
67377;BME280;54261;46.086;6.588;2023-06-26T10:27:50;92861.88;;;19.31;40.40
67377;BME280;54261;46.086;6.588;2023-06-26T10:32:54;92866.53;;;20.39;38.92
67377;BME280;54261;46.086;6.588;2023-06-26T10:38:02;92856.88;;;20.14;40.21
67377;BME280;54261;46.086;6.588;2023-06-26T10:43:08;92860.13;;;19.97;38.90
67377;BME280;54261;46.086;6.588;2023-06-26T10:48:12;92860.50;;;19.95;38.40
67377;BME280;54261;46.086;6.588;2023-06-26T11:03:37;92853.25;;;19.26;39.56
67377;BME280;54261;46.086;6.588;2023-06-26T11:08:47;92859.38;;;20.99;36.01
67377;BME280;54261;46.086;6.588;2023-06-26T11:13:50;92838.16;;;21.23;36.46
67377;BME280;54261;46.086;6.588;2023-06-26T11:18:58;92860.72;;;21.16;35.75
67377;BME280;54261;46.086;6.588;2023-06-26T11:24:01;92851.63;;;22.06;35.60
67377;BME280;54261;46.086;6.588;2023-06-26T11:29:04;92846.69;;;22.30;34.43
67377;BME280;54261;46.086;6.588;2023-06-26T11:34:12;92847.91;;;21.20;36.41
67377;BME280;54261;46.086;6.588;2023-06-26T11:39:14;92841.94;;;20.32;37.35
67377;BME280;54261;46.086;6.588;2023-06-26T11:44:17;92854.66;;;21.90;34.70
67377;BME280;54261;46.086;6.588;2023-06-26T11:49:22;92849.47;;;22.37;33.97
67377;BME280;54261;46.086;6.588;2023-06-26T11:54:27;92833.78;;;20.05;37.15
67377;BME280;54261;46.086;6.588;2023-06-26T11:59:39;92846.16;;;20.29;36.33
67377;BME280;54261;46.086;6.588;2023-06-26T12:04:42;92840.25;;;20.57;38.33
67377;BME280;54261;46.086;6.588;2023-06-26T12:09:47;92853.94;;;21.44;34.87
67377;BME280;54261;46.086;6.588;2023-06-26T12:14:53;92839.63;;;21.58;34.88
67377;BME280;54261;46.086;6.588;2023-06-26T12:19:55;92845.06;;;20.71;35.97
67377;BME280;54261;46.086;6.588;2023-06-26T12:24:56;92846.56;;;22.08;33.90
67377;BME280;54261;46.086;6.588;2023-06-26T12:30:03;92846.00;;;22.62;33.85
67377;BME280;54261;46.086;6.588;2023-06-26T12:35:05;92848.81;;;22.80;33.97
67377;BME280;54261;46.086;6.588;2023-06-26T12:40:18;92831.66;;;23.05;30.29
67377;BME280;54261;46.086;6.588;2023-06-26T12:45:21;92832.28;;;22.40;32.99
67377;BME280;54261;46.086;6.588;2023-06-26T12:50:38;92814.22;;;21.01;34.76
67377;BME280;54261;46.086;6.588;2023-06-26T12:55:40;92825.13;;;22.06;32.11
67377;BME280;54261;46.086;6.588;2023-06-26T13:00:45;92829.47;;;21.55;35.22
67377;BME280;54261;46.086;6.588;2023-06-26T13:05:47;92840.34;;;21.48;35.42
67377;BME280;54261;46.086;6.588;2023-06-26T13:10:49;92814.91;;;20.91;37.28
67377;BME280;54261;46.086;6.588;2023-06-26T13:15:54;92841.16;;;20.69;37.27
67377;BME280;54261;46.086;6.588;2023-06-26T13:20:56;92842.50;;;21.27;36.67
67377;BME280;54261;46.086;6.588;2023-06-26T13:25:58;92835.47;;;21.75;37.41
67377;BME280;54261;46.086;6.588;2023-06-26T13:31:00;92830.13;;;20.20;39.16
67377;BME280;54261;46.086;6.588;2023-06-26T13:36:03;92824.00;;;21.06;39.25
67377;BME280;54261;46.086;6.588;2023-06-26T13:41:07;92847.88;;;22.32;37.75
67377;BME280;54261;46.086;6.588;2023-06-26T13:46:09;92830.22;;;21.03;38.84
67377;BME280;54261;46.086;6.588;2023-06-26T13:51:11;92824.03;;;22.25;36.22
67377;BME280;54261;46.086;6.588;2023-06-26T13:56:13;92779.72;;;21.83;38.18
67377;BME280;54261;46.086;6.588;2023-06-26T14:01:16;92827.94;;;22.28;36.15
67377;BME280;54261;46.086;6.588;2023-06-26T14:06:18;92837.34;;;22.41;36.88
67377;BME280;54261;46.086;6.588;2023-06-26T14:11:20;92811.97;;;22.41;36.29
67377;BME280;54261;46.086;6.588;2023-06-26T14:16:25;92812.88;;;23.90;35.39
67377;BME280;54261;46.086;6.588;2023-06-26T14:21:27;92814.47;;;26.25;30.68
67377;BME280;54261;46.086;6.588;2023-06-26T14:26:30;92818.53;;;24.54;33.49
67377;BME280;54261;46.086;6.588;2023-06-26T14:31:34;92792.66;;;26.41;30.29
67377;BME280;54261;46.086;6.588;2023-06-26T14:36:36;92810.59;;;24.74;31.05
67377;BME280;54261;46.086;6.588;2023-06-26T14:41:39;92803.16;;;23.60;34.20
67377;BME280;54261;46.086;6.588;2023-06-26T14:46:41;92803.34;;;26.36;29.72
67377;BME280;54261;46.086;6.588;2023-06-26T14:51:44;92781.22;;;28.00;29.49
67377;BME280;54261;46.086;6.588;2023-06-26T14:56:45;92784.97;;;28.31;28.81
67377;BME280;54261;46.086;6.588;2023-06-26T15:01:48;92708.69;;;25.29;29.94
67377;BME280;54261;46.086;6.588;2023-06-26T15:06:50;92791.19;;;26.68;30.53
67377;BME280;54261;46.086;6.588;2023-06-26T15:11:52;92793.97;;;27.19;29.27
67377;BME280;54261;46.086;6.588;2023-06-26T15:16:54;92783.00;;;26.29;29.08
67377;BME280;54261;46.086;6.588;2023-06-26T15:21:56;92731.38;;;26.10;29.21
67377;BME280;54261;46.086;6.588;2023-06-26T15:26:58;92768.00;;;27.20;27.95
67377;BME280;54261;46.086;6.588;2023-06-26T15:32:01;92757.19;;;26.54;29.06
67377;BME280;54261;46.086;6.588;2023-06-26T15:37:03;92757.31;;;26.98;29.86
67377;BME280;54261;46.086;6.588;2023-06-26T15:42:06;92783.31;;;28.53;28.02
67377;BME280;54261;46.086;6.588;2023-06-26T15:47:08;92751.00;;;27.25;28.01
67377;BME280;54261;46.086;6.588;2023-06-26T15:52:10;92773.84;;;25.67;29.44
67377;BME280;54261;46.086;6.588;2023-06-26T15:57:12;92770.28;;;27.49;28.38
67377;BME280;54261;46.086;6.588;2023-06-26T16:02:14;92717.78;;;28.21;26.54
67377;BME280;54261;46.086;6.588;2023-06-26T16:07:16;92768.53;;;28.43;27.14
67377;BME280;54261;46.086;6.588;2023-06-26T16:12:18;92761.44;;;26.59;29.48
67377;BME280;54261;46.086;6.588;2023-06-26T16:17:20;92744.91;;;24.53;31.26
67377;BME280;54261;46.086;6.588;2023-06-26T16:22:22;92765.78;;;25.87;30.05
67377;BME280;54261;46.086;6.588;2023-06-26T16:27:24;92748.19;;;28.37;26.72
67377;BME280;54261;46.086;6.588;2023-06-26T16:32:26;92739.13;;;28.74;27.84
67377;BME280;54261;46.086;6.588;2023-06-26T16:37:28;92764.75;;;29.11;25.84
67377;BME280;54261;46.086;6.588;2023-06-26T16:42:29;92762.75;;;26.16;29.18
67377;BME280;54261;46.086;6.588;2023-06-26T16:47:32;92758.41;;;24.14;31.68
67377;BME280;54261;46.086;6.588;2023-06-26T16:52:40;92735.09;;;26.27;30.53
67377;BME280;54261;46.086;6.588;2023-06-26T16:57:45;92772.59;;;29.12;26.60
67377;BME280;54261;46.086;6.588;2023-06-26T17:02:47;92753.13;;;26.90;28.21
67377;BME280;54261;46.086;6.588;2023-06-26T17:07:50;92773.63;;;26.58;28.12
67377;BME280;54261;46.086;6.588;2023-06-26T17:12:52;92751.31;;;22.03;34.88
67377;BME280;54261;46.086;6.588;2023-06-26T17:17:54;92762.06;;;23.78;32.44
67377;BME280;54261;46.086;6.588;2023-06-26T17:22:56;92777.56;;;22.25;35.19
67377;BME280;54261;46.086;6.588;2023-06-26T17:28:00;92772.91;;;21.52;35.67
67377;BME280;54261;46.086;6.588;2023-06-26T17:33:02;92772.25;;;23.42;33.49
67377;BME280;54261;46.086;6.588;2023-06-26T17:38:05;92790.72;;;26.07;29.96
67377;BME280;54261;46.086;6.588;2023-06-26T17:43:09;92762.47;;;21.72;35.83
67377;BME280;54261;46.086;6.588;2023-06-26T17:48:11;92728.47;;;23.09;32.61
67377;BME280;54261;46.086;6.588;2023-06-26T17:53:13;92780.72;;;24.09;31.82
67377;BME280;54261;46.086;6.588;2023-06-26T17:58:15;92812.91;;;25.85;29.36
67377;BME280;54261;46.086;6.588;2023-06-26T18:03:17;92788.75;;;25.69;29.73
67377;BME280;54261;46.086;6.588;2023-06-26T18:08:19;92800.25;;;24.22;30.95
67377;BME280;54261;46.086;6.588;2023-06-26T18:13:22;92807.13;;;24.67;31.22
67377;BME280;54261;46.086;6.588;2023-06-26T18:18:24;92822.19;;;24.15;32.25
67377;BME280;54261;46.086;6.588;2023-06-26T18:23:25;92789.75;;;24.02;31.36
67377;BME280;54261;46.086;6.588;2023-06-26T18:28:27;92837.78;;;24.43;31.30
67377;BME280;54261;46.086;6.588;2023-06-26T18:33:32;92812.84;;;23.98;31.44
67377;BME280;54261;46.086;6.588;2023-06-26T18:38:34;92822.28;;;23.64;31.18
67377;BME280;54261;46.086;6.588;2023-06-26T18:43:36;92819.97;;;23.26;32.82
67377;BME280;54261;46.086;6.588;2023-06-26T18:48:38;92839.38;;;22.59;33.91
67377;BME280;54261;46.086;6.588;2023-06-26T18:53:40;92863.00;;;23.73;33.19
67377;BME280;54261;46.086;6.588;2023-06-26T18:58:43;92870.81;;;24.00;32.32
67377;BME280;54261;46.086;6.588;2023-06-26T19:03:45;92871.47;;;24.44;31.59
67377;BME280;54261;46.086;6.588;2023-06-26T19:08:47;92878.81;;;22.58;34.10
67377;BME280;54261;46.086;6.588;2023-06-26T19:13:49;92881.69;;;22.98;32.94
67377;BME280;54261;46.086;6.588;2023-06-26T19:18:51;92866.13;;;23.86;32.37
67377;BME280;54261;46.086;6.588;2023-06-26T19:23:57;92859.41;;;23.00;33.52
67377;BME280;54261;46.086;6.588;2023-06-26T19:28:59;92889.28;;;21.75;34.83
67377;BME280;54261;46.086;6.588;2023-06-26T19:34:00;92870.91;;;20.47;36.28
67377;BME280;54261;46.086;6.588;2023-06-26T19:39:02;92903.13;;;18.90;40.66
67377;BME280;54261;46.086;6.588;2023-06-26T19:44:04;92867.69;;;18.24;40.75
67377;BME280;54261;46.086;6.588;2023-06-26T19:49:07;92896.56;;;17.29;43.29
67377;BME280;54261;46.086;6.588;2023-06-26T19:54:08;92889.53;;;18.90;40.24
67377;BME280;54261;46.086;6.588;2023-06-26T19:59:11;92899.03;;;21.27;35.76
67377;BME280;54261;46.086;6.588;2023-06-26T20:04:14;92906.69;;;21.14;36.23
67377;BME280;54261;46.086;6.588;2023-06-26T20:09:17;92907.41;;;21.49;35.75
67377;BME280;54261;46.086;6.588;2023-06-26T20:14:18;92907.34;;;19.78;38.40
67377;BME280;54261;46.086;6.588;2023-06-26T20:19:21;92910.16;;;21.11;35.64
67377;BME280;54261;46.086;6.588;2023-06-26T20:24:23;92918.69;;;20.41;36.86
67377;BME280;54261;46.086;6.588;2023-06-26T20:29:25;92918.31;;;21.97;34.67
67377;BME280;54261;46.086;6.588;2023-06-26T20:34:27;92886.72;;;22.89;33.15
67377;BME280;54261;46.086;6.588;2023-06-26T20:39:30;92938.06;;;22.39;33.63
67377;BME280;54261;46.086;6.588;2023-06-26T20:44:32;92929.75;;;21.24;36.26
67377;BME280;54261;46.086;6.588;2023-06-26T20:49:45;92925.84;;;23.04;33.33
67377;BME280;54261;46.086;6.588;2023-06-26T20:54:48;92936.53;;;21.82;34.82
67377;BME280;54261;46.086;6.588;2023-06-26T20:59:53;92921.94;;;22.09;34.42
67377;BME280;54261;46.086;6.588;2023-06-26T21:04:55;92899.78;;;20.21;37.23
67377;BME280;54261;46.086;6.588;2023-06-26T21:09:58;92919.72;;;19.75;37.81
67377;BME280;54261;46.086;6.588;2023-06-26T21:15:05;92898.13;;;21.15;35.38
67377;BME280;54261;46.086;6.588;2023-06-26T21:20:08;92921.47;;;20.44;37.36
67377;BME280;54261;46.086;6.588;2023-06-26T21:25:09;92940.28;;;21.63;35.44
67377;BME280;54261;46.086;6.588;2023-06-26T21:30:13;92916.44;;;22.05;34.26
67377;BME280;54261;46.086;6.588;2023-06-26T21:35:19;92941.25;;;21.89;35.48
67377;BME280;54261;46.086;6.588;2023-06-26T21:40:41;92927.91;;;19.52;38.21
67377;BME280;54261;46.086;6.588;2023-06-26T21:45:43;92923.41;;;19.86;38.37
67377;BME280;54261;46.086;6.588;2023-06-26T21:50:45;92926.94;;;18.97;38.22
67377;BME280;54261;46.086;6.588;2023-06-26T21:55:47;92945.53;;;18.00;41.18
67377;BME280;54261;46.086;6.588;2023-06-26T22:00:50;92929.91;;;18.49;41.04
67377;BME280;54261;46.086;6.588;2023-06-26T22:05:52;92933.81;;;19.81;37.89
67377;BME280;54261;46.086;6.588;2023-06-26T22:10:54;92956.44;;;20.69;36.05
67377;BME280;54261;46.086;6.588;2023-06-26T22:15:56;92909.59;;;19.75;37.81
67377;BME280;54261;46.086;6.588;2023-06-26T22:20:58;92932.38;;;21.47;34.95
67377;BME280;54261;46.086;6.588;2023-06-26T22:26:00;92935.94;;;21.59;35.49
67377;BME280;54261;46.086;6.588;2023-06-26T22:31:03;92922.69;;;20.47;35.91
67377;BME280;54261;46.086;6.588;2023-06-26T22:36:05;92947.59;;;22.01;34.73
67377;BME280;54261;46.086;6.588;2023-06-26T22:41:07;92941.03;;;20.81;36.64
67377;BME280;54261;46.086;6.588;2023-06-26T22:46:08;92953.41;;;20.78;35.90
67377;BME280;54261;46.086;6.588;2023-06-26T22:51:10;92932.13;;;19.99;36.30
67377;BME280;54261;46.086;6.588;2023-06-26T22:56:12;92938.38;;;20.57;35.36
67377;BME280;54261;46.086;6.588;2023-06-26T23:01:14;92945.47;;;17.64;40.90
67377;BME280;54261;46.086;6.588;2023-06-26T23:06:16;92922.69;;;19.19;38.03
67377;BME280;54261;46.086;6.588;2023-06-26T23:11:23;92940.53;;;19.40;37.68
67377;BME280;54261;46.086;6.588;2023-06-26T23:16:25;92891.28;;;18.40;39.52
67377;BME280;54261;46.086;6.588;2023-06-26T23:21:27;92944.03;;;20.41;36.37
67377;BME280;54261;46.086;6.588;2023-06-26T23:26:29;92924.09;;;18.70;38.91
67377;BME280;54261;46.086;6.588;2023-06-26T23:31:32;92947.00;;;19.79;37.21
67377;BME280;54261;46.086;6.588;2023-06-26T23:36:34;92951.66;;;18.88;39.38
67377;BME280;54261;46.086;6.588;2023-06-26T23:41:39;92925.81;;;18.79;39.15
67377;BME280;54261;46.086;6.588;2023-06-26T23:46:41;92909.13;;;19.46;38.30
67377;BME280;54261;46.086;6.588;2023-06-26T23:51:43;92946.41;;;15.35;46.66
67377;BME280;54261;46.086;6.588;2023-06-26T23:56:45;92937.16;;;17.41;42.86
